createdAt,value
2022-10-01T00:02:18.549Z,9.78
2022-10-01T00:07:20.840Z,9.72
2022-10-01T00:12:23.387Z,9.67
2022-10-01T00:17:29.984Z,9.62
2022-10-01T00:22:37.239Z,9.61
2022-10-01T00:27:50.669Z,9.63
2022-10-01T00:32:55.075Z,9.61
2022-10-01T00:38:01.728Z,9.57
2022-10-01T00:43:22.601Z,9.54
2022-10-01T00:48:29.704Z,9.52
2022-10-01T00:53:32.996Z,9.53
2022-10-01T00:58:36.225Z,9.51
2022-10-01T01:03:52.613Z,9.50
2022-10-01T01:08:56.271Z,9.50
2022-10-01T01:14:43.831Z,9.49
2022-10-01T01:20:21.155Z,9.49
2022-10-01T01:25:35.985Z,9.49
2022-10-01T01:30:42.771Z,9.44
2022-10-01T01:36:00.240Z,9.36
2022-10-01T01:41:12.311Z,9.33
2022-10-01T01:46:33.858Z,9.28
2022-10-01T01:51:49.247Z,9.22
2022-10-01T01:57:18.251Z,9.18
2022-10-01T02:02:28.091Z,9.12
2022-10-01T02:07:43.791Z,9.06
2022-10-01T02:13:38.822Z,9.00
2022-10-01T02:18:57.735Z,8.92
2022-10-01T02:24:31.320Z,8.85
2022-10-01T02:29:40.975Z,8.80
2022-10-01T02:34:46.232Z,8.78
2022-10-01T02:39:53.033Z,8.76
2022-10-01T02:45:02.657Z,8.74
2022-10-01T02:50:57.830Z,8.73
2022-10-01T02:56:05.242Z,8.71
2022-10-01T03:01:15.437Z,8.71
2022-10-01T03:06:23.918Z,8.71
2022-10-01T03:11:30.432Z,8.69
2022-10-01T03:16:33.644Z,8.67
2022-10-01T03:22:08.603Z,8.65
2022-10-01T03:27:14.371Z,8.63
2022-10-01T03:33:03.647Z,8.62
2022-10-01T03:38:29.412Z,8.56
2022-10-01T03:43:59.658Z,8.49
2022-10-01T03:49:03.780Z,8.41
2022-10-01T03:54:22.687Z,8.33
2022-10-01T03:59:28.749Z,8.24
2022-10-01T04:05:20.133Z,8.14
2022-10-01T04:10:22.587Z,8.06
2022-10-01T04:15:28.405Z,7.98
2022-10-01T04:20:56.819Z,7.89
2022-10-01T04:26:11.887Z,7.81
2022-10-01T04:31:35.558Z,7.75
2022-10-01T04:36:38.446Z,7.70
2022-10-01T04:41:49.124Z,7.71
2022-10-01T04:46:54.230Z,7.75
2022-10-01T04:52:01.034Z,7.80
2022-10-01T04:57:04.672Z,7.94
2022-10-01T05:02:10.613Z,8.07
2022-10-01T05:07:30.289Z,8.22
2022-10-01T05:13:11.067Z,8.37
2022-10-01T05:18:14.890Z,8.50
2022-10-01T05:23:25.155Z,8.62
2022-10-01T05:28:50.332Z,8.74
2022-10-01T05:33:56.924Z,8.86
2022-10-01T05:39:15.267Z,8.97
2022-10-01T05:45:01.308Z,9.09
2022-10-01T05:50:13.110Z,9.23
2022-10-01T05:55:27.766Z,9.36
2022-10-01T06:00:35.972Z,9.49
2022-10-01T06:05:44.992Z,9.62
2022-10-01T06:10:51.846Z,9.75
2022-10-01T06:15:57.013Z,9.88
2022-10-01T06:21:01.755Z,10.01
2022-10-01T06:26:19.764Z,10.16
2022-10-01T06:31:39.302Z,10.33
2022-10-01T06:37:07.143Z,10.48
2022-10-01T06:42:11.163Z,10.62
2022-10-01T06:47:13.524Z,10.70
2022-10-01T06:52:53.197Z,10.77
2022-10-01T06:58:01.415Z,10.81
2022-10-01T07:03:14.090Z,10.90
2022-10-01T07:08:42.020Z,11.00
2022-10-01T07:13:44.512Z,11.09
2022-10-01T07:18:47.623Z,11.11
2022-10-01T07:23:54.497Z,11.22
2022-10-01T07:28:59.555Z,11.30
2022-10-01T07:34:04.223Z,11.38
2022-10-01T07:39:25.297Z,11.54
2022-10-01T07:45:14.932Z,11.67
2022-10-01T07:50:20.734Z,11.79
2022-10-01T07:55:26.987Z,11.92
2022-10-01T08:00:33.029Z,12.11
2022-10-01T08:05:41.492Z,12.35
2022-10-01T08:10:44.637Z,12.63
2022-10-01T08:15:59.393Z,12.83
2022-10-01T08:21:23.840Z,13.07
2022-10-01T08:26:54.457Z,13.08
2022-10-01T08:32:21.970Z,13.05
2022-10-01T08:37:29.396Z,13.06
2022-10-01T08:42:44.972Z,13.05
2022-10-01T08:48:01.584Z,13.10
2022-10-01T08:53:13.949Z,13.13
2022-10-01T08:58:25.865Z,13.13
2022-10-01T09:03:33.614Z,13.17
2022-10-01T09:08:54.192Z,13.24
2022-10-01T09:14:32.506Z,13.42
2022-10-01T09:20:08.442Z,13.61
2022-10-01T09:26:00.156Z,13.73
2022-10-01T09:31:52.051Z,13.83
2022-10-01T09:37:06.951Z,13.96
2022-10-01T09:42:39.887Z,14.04
2022-10-01T09:47:48.740Z,14.06
2022-10-01T09:53:17.586Z,14.01
2022-10-01T09:58:23.340Z,14.01
2022-10-01T10:03:38.017Z,13.97
2022-10-01T10:09:18.329Z,13.90
2022-10-01T10:14:41.338Z,13.93
2022-10-01T10:20:03.195Z,14.08
2022-10-01T10:25:32.576Z,14.47
2022-10-01T10:30:37.174Z,14.71
2022-10-01T10:35:43.254Z,14.75
2022-10-01T10:40:46.797Z,14.85
2022-10-01T10:45:56.856Z,15.03
2022-10-01T10:51:02.574Z,15.35
2022-10-01T10:56:06.544Z,15.69
2022-10-01T11:01:33.116Z,16.09
2022-10-01T11:06:55.024Z,16.59
2022-10-01T11:12:27.793Z,16.61
2022-10-01T11:18:10.652Z,16.37
2022-10-01T11:23:37.703Z,16.30
2022-10-01T11:29:09.036Z,16.29
2022-10-01T11:34:48.824Z,16.11
2022-10-01T11:40:03.417Z,16.01
2022-10-01T11:45:32.127Z,15.95
2022-10-01T11:50:39.816Z,15.97
2022-10-01T11:56:22.974Z,16.11
2022-10-01T12:02:01.307Z,16.15
2022-10-01T12:07:13.472Z,16.07
2022-10-01T12:12:42.797Z,16.00
2022-10-01T12:18:19.425Z,16.05
2022-10-01T12:23:50.498Z,16.02
2022-10-01T12:29:24.713Z,15.86
2022-10-01T12:34:53.859Z,15.73
2022-10-01T12:40:18.047Z,15.71
2022-10-01T12:45:43.919Z,15.64
2022-10-01T12:51:16.494Z,15.58
2022-10-01T12:57:11.433Z,15.52
2022-10-01T13:02:45.982Z,15.45
2022-10-01T13:08:38.286Z,15.37
2022-10-01T13:13:43.008Z,15.28
2022-10-01T13:19:34.644Z,15.16
2022-10-01T13:25:13.278Z,15.04
2022-10-01T13:31:11.299Z,15.02
2022-10-01T13:36:49.559Z,15.01
2022-10-01T13:41:58.560Z,15.00
2022-10-01T13:47:07.055Z,15.07
2022-10-01T13:52:22.016Z,15.24
2022-10-01T13:58:04.940Z,15.38
2022-10-01T14:03:23.635Z,15.49
2022-10-01T14:08:31.244Z,15.54
2022-10-01T14:14:01.706Z,15.57
2022-10-01T14:19:04.744Z,15.53
2022-10-01T14:24:28.622Z,15.52
2022-10-01T14:30:11.799Z,15.50
2022-10-01T14:35:32.979Z,15.48
2022-10-01T14:40:41.279Z,15.41
2022-10-01T14:46:14.032Z,15.39
2022-10-01T14:51:51.587Z,15.43
2022-10-01T14:56:53.899Z,15.43
2022-10-01T15:02:01.904Z,15.35
2022-10-01T15:07:12.803Z,15.18
2022-10-01T15:12:40.423Z,15.01
2022-10-01T15:17:43.222Z,14.85
2022-10-01T15:23:01.091Z,14.72
2022-10-01T15:28:14.580Z,14.57
2022-10-01T15:33:50.221Z,14.41
2022-10-01T15:39:13.997Z,14.24
2022-10-01T15:44:38.570Z,14.10
2022-10-01T15:49:40.909Z,13.98
2022-10-01T15:55:05.268Z,13.87
2022-10-01T16:00:22.387Z,13.76
2022-10-01T16:05:36.260Z,13.67
2022-10-01T16:10:45.766Z,13.56
2022-10-01T16:16:20.766Z,13.44
2022-10-01T16:22:18.864Z,13.32
2022-10-01T16:27:31.799Z,13.25
2022-10-01T16:32:52.134Z,13.21
2022-10-01T16:37:58.047Z,13.18
2022-10-01T16:43:11.083Z,13.15
2022-10-01T16:48:19.719Z,13.12
2022-10-01T16:53:29.643Z,13.08
2022-10-01T16:58:32.712Z,13.04
2022-10-01T17:03:35.854Z,13.00
2022-10-01T17:08:38.291Z,12.98
2022-10-01T17:13:43.682Z,12.97
2022-10-01T17:18:48.758Z,12.95
2022-10-01T17:24:02.317Z,12.93
2022-10-01T17:29:06.907Z,12.90
2022-10-01T17:34:09.012Z,12.89
2022-10-01T17:39:11.208Z,12.90
2022-10-01T17:44:36.983Z,12.88
2022-10-01T17:49:39.686Z,12.83
2022-10-01T17:54:41.788Z,12.72
2022-10-01T17:59:44.047Z,12.59
2022-10-01T18:04:47.090Z,12.37
2022-10-01T18:09:55.775Z,12.13
2022-10-01T18:14:58.146Z,11.90
2022-10-01T18:20:00.398Z,11.68
2022-10-01T18:25:03.647Z,11.48
2022-10-01T18:30:10.380Z,11.28
2022-10-01T18:35:41.425Z,11.11
2022-10-01T18:40:56.535Z,10.93
2022-10-01T18:46:43.187Z,10.76
2022-10-01T18:52:25.852Z,10.64
2022-10-01T18:58:01.561Z,10.56
2022-10-01T19:03:35.851Z,10.50
2022-10-01T19:09:09.947Z,10.45
2022-10-01T19:14:39.100Z,10.38
2022-10-01T19:20:53.673Z,10.26
2022-10-01T19:26:10.069Z,10.19
2022-10-01T19:31:44.354Z,10.12
2022-10-01T19:37:12.558Z,10.03
2022-10-01T19:42:29.711Z,9.95
2022-10-01T19:48:06.503Z,9.87
2022-10-01T19:53:24.055Z,9.81
2022-10-01T19:58:26.927Z,9.74
2022-10-01T20:03:44.660Z,9.69
2022-10-01T20:09:20.274Z,9.64
2022-10-01T20:15:07.261Z,9.59
2022-10-01T20:20:16.299Z,9.57
2022-10-01T20:25:33.955Z,9.55
2022-10-01T20:31:05.767Z,9.53
2022-10-01T20:36:17.552Z,9.49
2022-10-01T20:41:30.275Z,9.42
2022-10-01T20:46:43.494Z,9.37
2022-10-01T20:51:58.427Z,9.34
2022-10-01T20:57:14.095Z,9.34
2022-10-01T21:03:01.804Z,9.35
2022-10-01T21:09:02.081Z,9.36
2022-10-01T21:14:20.819Z,9.35
2022-10-01T21:20:02.840Z,9.36
2022-10-01T21:26:19.168Z,9.38
2022-10-01T21:31:33.434Z,9.42
2022-10-01T21:37:03.215Z,9.48
2022-10-01T21:42:16.710Z,9.53
2022-10-01T21:48:04.112Z,9.58
2022-10-01T21:53:57.255Z,9.64
2022-10-01T21:59:11.900Z,9.68
2022-10-01T22:04:38.718Z,9.71
2022-10-01T22:09:53.525Z,9.76
2022-10-01T22:14:59.274Z,9.80
2022-10-01T22:20:04.871Z,9.81
2022-10-01T22:25:28.504Z,9.82
2022-10-01T22:30:34.597Z,9.83
2022-10-01T22:36:15.772Z,9.83
2022-10-01T22:41:47.123Z,9.83
2022-10-01T22:47:50.386Z,9.78
2022-10-01T22:53:50.364Z,9.74
2022-10-01T22:59:12.939Z,9.72
2022-10-01T23:05:08.666Z,9.71
2022-10-01T23:10:47.488Z,9.71
2022-10-01T23:16:14.580Z,9.72
2022-10-01T23:21:42.820Z,9.73
2022-10-01T23:27:19.811Z,9.76
2022-10-01T23:32:51.115Z,9.78
2022-10-01T23:39:01.809Z,9.80
2022-10-01T23:44:52.722Z,9.82
2022-10-01T23:50:27.901Z,9.86
2022-10-01T23:56:01.019Z,9.88
